EDT,Max TemperatureF,Mean TemperatureF,Min TemperatureF,Max Dew PointF,MeanDew PointF,Min DewpointF,Max Humidity, Mean Humidity, Min Humidity, Max Sea Level PressureIn, Mean Sea Level PressureIn, Min Sea Level PressureIn, Max VisibilityMiles, Mean VisibilityMiles, Min VisibilityMiles, Max Wind SpeedMPH, Mean Wind SpeedMPH, Max Gust SpeedMPH,PrecipitationIn, CloudCover, Events, WindDirDegrees
2013-3-1,53,43,33,28,27,25,81,58,35,29.98,29.94,29.88,10,10,10,17,7,23,0.00,1,,280
2013-3-2,46,40,35,36,29,21,93,66,39,29.97,29.92,29.88,10,10,7,17,9,24,0.00,4,Rain,287
2013-3-3,46,39,32,23,17,10,65,45,25,30.05,29.98,29.94,10,10,10,15,8,24,0.00,0,,295
2013-3-4,53,42,32,32,20,9,66,48,18,30.18,30.11,30.04,10,10,10,7,5,,0.00,0,,290
2013-3-5,59,48,37,59,35,28,100,62,50,30.09,29.95,29.73,10,10,10,29,7,40,0.00,3,Thunderstorm,223
2013-3-6,46,40,33,28,22,18,75,50,34,30.14,29.98,29.83,10,10,10,30,18,41,0.00,1,,296
2013-3-7,53,40,28,36,29,23,100,70,30,30.25,30.20,30.14,10,9,7,8,4,,0.00,0,,309
2013-3-8,55,44,33,32,27,19,81,56,25,30.31,30.26,30.20,10,10,10,9,5,,0.00,0,,57
2013-3-9,59,47,35,34,29,23,81,56,30,30.35,30.28,30.23,10,10,10,8,4,,0.00,0,,78
2013-3-10,60,50,41,46,38,32,77,63,39,30.27,30.20,30.13,10,10,5,8,3,,0.00,0,,122
2013-3-11,59,54,48,50,46,43,88,78,63,30.15,30.10,30.06,10,10,10,9,5,,0.00,2,,138
2013-3-12,60,52,44,59,43,28,100,73,31,30.05,29.89,29.78,10,9,3,16,8,21,0.00,4,Rain,270
2013-3-13,59,48,37,32,22,10,75,36,15,30.20,30.12,30.06,10,10,10,23,10,36,0.00,0,,294
2013-3-14,55,44,32,23,17,10,64,39,18,30.34,30.25,30.19,10,10,10,10,7,18,0.00,0,,297
2013-3-15,60,46,37,32,23,12,81,47,25,30.21,30.20,30.19,10,9,7,14,6,,0.00,0,,270
2013-3-16,,,,,,,,,,,,,,,,,,,,,,
2013-3-17,,,,,,,,,,,,,,,,,,,,,,
2013-3-18,53,50,46,52,46,45,100,94,93,29.98,29.90,29.85,10,7,2,20,7,38,0.00,3,Rain-Thunderstorm,37
2013-3-19,60,52,44,52,39,19,100,74,20,30.06,29.96,29.88,10,5,0,15,4,17,0.00,4,Fog-Thunderstorm,307
2013-3-20,60,50,41,32,19,5,70,35,14,30.13,30.01,29.87,10,8,7,18,4,24,0.00,0,,294
2013-3-21,51,42,33,28,12,-4,81,34,12,29.96,29.90,29.86,10,8,5,21,9,26,0.00,0,,297
2013-3-22,51,42,33,37,22,14,81,47,32,30.08,30.03,29.96,10,8,7,8,3,,0.00,1,,113
2013-3-23,53,48,42,52,44,34,100,90,66,30.05,29.96,29.87,10,5,1,10,2,,0.00,7,Rain-Thunderstorm,67
2013-3-24,48,46,44,48,46,43,100,98,87,29.87,29.64,29.57,10,4,1,13,6,23,0.00,8,Rain-Thunderstorm,51
2013-3-25,46,42,37,45,23,18,100,48,32,30.03,29.82,29.63,10,8,5,29,16,37,0.00,4,,286
2013-3-26,46,40,33,28,22,18,81,53,32,30.23,30.09,30.00,10,8,7,20,11,28,0.00,0,,287
2013-3-27,59,46,32,28,21,12,81,46,16,30.31,30.24,30.19,10,7,5,13,6,18,0.00,0,,292
2013-3-28,64,48,32,32,21,9,87,43,13,30.34,30.27,30.18,10,8,5,10,4,22,0.00,0,,306
2013-3-29,66,50,33,32,25,12,87,40,16,30.36,30.27,30.19,10,7,5,8,4,,0.00,0,,36
2013-3-30,73,60,46,59,38,32,100,47,23,30.21,30.13,30.03,10,7,5,12,3,16,0.00,1,Rain,346
2013-3-31,71,63,55,59,54,46,100,77,46,30.05,29.95,29.88,10,6,2,16,4,22,0.00,2,Rain-Thunderstorm,235